createdAt,value
2023-02-25T00:01:35.805Z,98160.06
2023-02-25T00:04:02.638Z,98154.88
2023-02-25T00:06:29.454Z,98152.31
2023-02-25T00:08:56.504Z,98148.69
2023-02-25T00:11:26.084Z,98151.47
2023-02-25T00:13:53.400Z,98148.66
2023-02-25T00:16:22.400Z,98149.16
2023-02-25T00:18:55.102Z,98145.03
2023-02-25T00:21:21.976Z,98142.00
2023-02-25T00:23:53.572Z,98138.88
2023-02-25T00:26:21.163Z,98136.31
2023-02-25T00:28:48.565Z,98137.44
2023-02-25T00:31:24.522Z,98137.44
2023-02-25T00:33:53.597Z,98132.28
2023-02-25T00:36:25.416Z,98136.94
2023-02-25T00:38:54.551Z,98128.72
2023-02-25T00:41:25.134Z,98128.13
2023-02-25T00:43:56.142Z,98121.28
2023-02-25T00:46:23.971Z,98123.22
2023-02-25T00:48:52.639Z,98123.69
2023-02-25T00:51:23.547Z,98121.69
2023-02-25T00:53:50.544Z,98120.84
2023-02-25T00:56:20.383Z,98122.34
2023-02-25T00:58:49.458Z,98112.72
2023-02-25T01:01:39.172Z,98099.91
2023-02-25T01:04:06.320Z,98092.94
2023-02-25T01:06:36.378Z,98096.31
2023-02-25T01:09:05.462Z,98101.00
2023-02-25T01:11:36.086Z,98103.06
2023-02-25T01:14:05.534Z,98101.19
2023-02-25T01:16:35.757Z,98112.34
2023-02-25T01:19:07.047Z,98103.94
2023-02-25T01:21:37.621Z,98101.06
2023-02-25T01:24:10.191Z,98094.81
2023-02-25T01:26:41.446Z,98097.25
2023-02-25T01:29:10.245Z,98078.81
2023-02-25T01:31:38.371Z,98064.34
2023-02-25T01:34:07.345Z,98052.34
2023-02-25T01:36:34.698Z,98060.13
2023-02-25T01:39:02.544Z,98057.78
2023-02-25T01:41:31.915Z,98046.16
2023-02-25T01:44:17.721Z,98050.25
2023-02-25T01:46:47.153Z,98057.50
2023-02-25T01:49:29.124Z,98076.84
2023-02-25T01:52:02.900Z,98091.06
2023-02-25T01:54:30.591Z,98087.94
2023-02-25T01:56:58.531Z,98096.19
2023-02-25T01:59:28.756Z,98104.41
2023-02-25T02:01:56.192Z,98116.78
2023-02-25T02:04:26.601Z,98129.28
2023-02-25T02:06:55.398Z,98143.59
2023-02-25T02:09:27.486Z,98143.81
2023-02-25T02:12:02.410Z,98153.38
2023-02-25T02:14:42.473Z,98164.16
2023-02-25T02:17:35.686Z,98178.06
2023-02-25T02:20:23.179Z,98164.69
2023-02-25T02:23:27.676Z,98166.41
2023-02-25T02:26:24.665Z,98182.75
2023-02-25T02:29:20.744Z,98180.28
2023-02-25T02:32:05.547Z,98181.19
2023-02-25T02:34:52.787Z,98174.66
2023-02-25T02:37:34.167Z,98178.25
2023-02-25T02:40:19.833Z,98176.13
2023-02-25T02:42:55.930Z,98186.66
2023-02-25T02:45:43.152Z,98194.72
2023-02-25T02:48:45.046Z,98189.44
2023-02-25T02:51:19.738Z,98191.44
2023-02-25T02:53:54.847Z,98186.81
2023-02-25T02:56:25.102Z,98177.28
2023-02-25T02:59:07.935Z,98172.47
2023-02-25T03:01:46.350Z,98165.56
2023-02-25T03:04:16.982Z,98162.22
2023-02-25T03:06:49.321Z,98159.22
2023-02-25T03:09:16.103Z,98151.59
2023-02-25T03:11:43.089Z,98151.59
2023-02-25T03:14:13.084Z,98138.63
2023-02-25T03:16:46.174Z,98147.72
2023-02-25T03:19:23.607Z,98153.72
2023-02-25T03:21:56.089Z,98159.00
2023-02-25T03:24:29.495Z,98156.22
2023-02-25T03:26:56.414Z,98157.25
2023-02-25T03:29:28.577Z,98172.81
2023-02-25T03:32:10.959Z,98179.47
2023-02-25T03:34:48.232Z,98182.94
2023-02-25T03:37:23.547Z,98182.28
2023-02-25T03:39:56.458Z,98181.56
2023-02-25T03:42:33.056Z,98202.28
2023-02-25T03:45:03.216Z,98205.09
2023-02-25T03:47:35.305Z,98193.75
2023-02-25T03:50:23.837Z,98207.09
2023-02-25T03:52:56.919Z,98227.84
2023-02-25T03:55:41.949Z,98214.38
2023-02-25T03:58:09.885Z,98228.66
2023-02-25T04:00:38.001Z,98230.63
2023-02-25T04:03:05.469Z,98230.63
2023-02-25T04:05:32.500Z,98236.22
2023-02-25T04:08:00.058Z,98236.69
2023-02-25T04:10:30.627Z,98239.66
2023-02-25T04:12:57.474Z,98241.13
2023-02-25T04:15:27.654Z,98243.97
2023-02-25T04:17:54.492Z,98234.72
2023-02-25T04:20:21.232Z,98227.78
2023-02-25T04:22:48.027Z,98223.59
2023-02-25T04:25:14.796Z,98212.63
2023-02-25T04:27:41.609Z,98215.84
2023-02-25T04:30:10.597Z,98223.66
2023-02-25T04:32:37.369Z,98228.09
2023-02-25T04:35:06.632Z,98226.31
2023-02-25T04:37:33.455Z,98225.53
2023-02-25T04:40:00.316Z,98224.00
2023-02-25T04:42:27.251Z,98241.69
2023-02-25T04:44:53.969Z,98246.84
2023-02-25T04:47:20.815Z,98245.69
2023-02-25T04:49:47.610Z,98257.53
2023-02-25T04:52:17.640Z,98250.41
2023-02-25T04:54:44.353Z,98258.59
2023-02-25T04:57:11.932Z,98262.50
2023-02-25T04:59:39.080Z,98246.44
2023-02-25T05:02:07.509Z,98264.19
2023-02-25T05:04:36.091Z,98262.69
2023-02-25T05:07:03.845Z,98263.03
2023-02-25T05:09:30.922Z,98253.44
2023-02-25T05:11:57.687Z,98242.19
2023-02-25T05:14:24.396Z,98252.31
2023-02-25T05:16:51.439Z,98250.41
2023-02-25T05:19:24.249Z,98255.94
2023-02-25T05:21:52.594Z,98252.19
2023-02-25T05:24:19.797Z,98260.59
2023-02-25T05:26:46.709Z,98251.88
2023-02-25T05:29:13.510Z,98259.81
2023-02-25T05:31:40.822Z,98251.22
2023-02-25T05:34:07.657Z,98259.16
2023-02-25T05:36:34.422Z,98263.91
2023-02-25T05:39:03.027Z,98272.19
2023-02-25T05:41:30.685Z,98278.75
2023-02-25T05:43:58.305Z,98276.06
2023-02-25T05:46:26.834Z,98286.78
2023-02-25T05:48:54.443Z,98294.22
2023-02-25T05:51:23.618Z,98294.59
2023-02-25T05:53:52.008Z,98302.31
2023-02-25T05:56:21.173Z,98309.19
2023-02-25T05:58:48.778Z,98305.03
2023-02-25T06:01:18.924Z,98310.06
2023-02-25T06:03:47.365Z,98304.34
2023-02-25T06:06:23.515Z,98311.31
2023-02-25T06:08:51.473Z,98309.44
2023-02-25T06:11:21.215Z,98321.31
2023-02-25T06:13:52.359Z,98328.84
2023-02-25T06:16:19.619Z,98343.81
2023-02-25T06:18:48.075Z,98354.00
2023-02-25T06:21:15.887Z,98347.25
2023-02-25T06:23:43.806Z,98357.00
2023-02-25T06:26:13.608Z,98365.69
2023-02-25T06:28:40.563Z,98360.44
2023-02-25T06:31:12.335Z,98375.91
2023-02-25T06:33:40.285Z,98377.91
2023-02-25T06:36:08.866Z,98366.22
2023-02-25T06:38:36.633Z,98361.66
2023-02-25T06:41:09.046Z,98360.31
2023-02-25T06:43:36.648Z,98370.63
2023-02-25T06:46:09.398Z,98372.19
2023-02-25T06:48:36.799Z,98381.25
2023-02-25T06:51:09.045Z,98395.78
2023-02-25T06:53:40.128Z,98400.72
2023-02-25T06:56:08.437Z,98409.66
2023-02-25T06:58:36.147Z,98403.91
2023-02-25T07:01:07.600Z,98400.31
2023-02-25T07:03:34.516Z,98401.41
2023-02-25T07:06:01.383Z,98416.28
2023-02-25T07:08:28.219Z,98414.25
2023-02-25T07:10:54.988Z,98393.06
2023-02-25T07:13:21.772Z,98386.09
2023-02-25T07:15:48.585Z,98396.38
2023-02-25T07:18:16.265Z,98394.91
2023-02-25T07:20:43.190Z,98402.44
2023-02-25T07:23:09.950Z,98401.09
2023-02-25T07:25:38.843Z,98403.69
2023-02-25T07:28:05.804Z,98392.06
2023-02-25T07:30:33.249Z,98404.78
2023-02-25T07:33:00.092Z,98414.78
2023-02-25T07:35:26.885Z,98402.09
2023-02-25T07:37:53.641Z,98411.25
2023-02-25T07:40:21.623Z,98420.41
2023-02-25T07:42:48.404Z,98413.63
2023-02-25T07:45:15.216Z,98422.38
2023-02-25T07:47:42.006Z,98418.06
2023-02-25T07:50:12.862Z,98425.53
2023-02-25T07:52:40.136Z,98424.53
2023-02-25T07:55:07.933Z,98430.84
2023-02-25T07:57:35.826Z,98432.16
2023-02-25T08:00:04.689Z,98419.78
2023-02-25T08:02:39.668Z,98414.13
2023-02-25T08:05:07.610Z,98413.53
2023-02-25T08:07:34.366Z,98417.41
2023-02-25T08:10:01.249Z,98424.97
2023-02-25T08:12:28.193Z,98425.38
2023-02-25T08:14:55.659Z,98423.56
2023-02-25T08:17:22.467Z,98427.00
2023-02-25T08:19:49.360Z,98431.69
2023-02-25T08:22:16.096Z,98428.00
2023-02-25T08:24:42.881Z,98411.84
2023-02-25T08:27:10.013Z,98415.19
2023-02-25T08:29:38.477Z,98416.78
2023-02-25T08:32:08.837Z,98428.13
2023-02-25T08:34:36.091Z,98435.97
2023-02-25T08:37:02.848Z,98428.84
2023-02-25T08:39:31.150Z,98434.88
2023-02-25T08:41:57.928Z,98418.81
2023-02-25T08:44:24.679Z,98442.94
2023-02-25T08:46:56.704Z,98423.94
2023-02-25T08:49:23.630Z,98424.81
2023-02-25T08:51:53.498Z,98430.31
2023-02-25T08:54:20.263Z,98426.94
2023-02-25T08:56:49.797Z,98421.25
2023-02-25T08:59:17.038Z,98429.28
2023-02-25T09:01:46.784Z,98429.13
2023-02-25T09:04:17.562Z,98428.72
2023-02-25T09:06:47.505Z,98421.31
2023-02-25T09:09:15.803Z,98421.00
2023-02-25T09:11:44.036Z,98414.97
2023-02-25T09:14:11.934Z,98414.97
2023-02-25T09:16:39.205Z,98415.81
2023-02-25T09:19:06.491Z,98419.34
2023-02-25T09:21:33.768Z,98402.38
2023-02-25T09:24:00.582Z,98408.63
2023-02-25T09:26:27.420Z,98435.34
2023-02-25T09:28:54.314Z,98414.16
2023-02-25T09:31:21.333Z,98429.22
2023-02-25T09:33:48.220Z,98422.03
2023-02-25T09:36:18.651Z,98415.53
2023-02-25T09:38:46.746Z,98406.28
2023-02-25T09:41:48.860Z,98417.75
2023-02-25T09:44:19.401Z,98413.00
2023-02-25T09:47:10.041Z,98410.66
2023-02-25T09:49:53.812Z,98397.72
2023-02-25T09:52:42.656Z,98393.03
2023-02-25T09:55:30.577Z,98372.19
2023-02-25T09:58:14.266Z,98382.69
2023-02-25T10:00:47.760Z,98377.84
2023-02-25T10:03:42.166Z,98372.38
2023-02-25T10:06:34.109Z,98378.91
2023-02-25T10:09:00.959Z,98365.13
2023-02-25T10:11:46.648Z,98379.81
2023-02-25T10:14:34.821Z,98381.00
2023-02-25T10:17:32.493Z,98383.59
2023-02-25T10:20:18.533Z,98387.59
2023-02-25T10:23:11.030Z,98397.22
2023-02-25T10:25:46.527Z,98394.81
2023-02-25T10:28:18.773Z,98405.53
2023-02-25T10:30:59.918Z,98387.94
2023-02-25T10:33:31.374Z,98404.28
2023-02-25T10:36:05.070Z,98406.53
2023-02-25T10:38:32.327Z,98393.31
2023-02-25T10:40:59.328Z,98393.22
2023-02-25T10:43:27.172Z,98389.00
2023-02-25T10:46:06.253Z,98393.31
2023-02-25T10:48:34.923Z,98409.22
2023-02-25T10:51:13.278Z,98404.13
2023-02-25T10:53:52.862Z,98397.38
2023-02-25T10:56:31.068Z,98399.75
2023-02-25T10:59:22.433Z,98404.47
2023-02-25T11:01:50.182Z,98395.69
2023-02-25T11:04:20.773Z,98394.47
2023-02-25T11:06:48.705Z,98407.19
2023-02-25T11:09:21.572Z,98397.78
2023-02-25T11:11:59.071Z,98410.00
2023-02-25T11:14:32.950Z,98397.31
2023-02-25T11:17:21.990Z,98387.84
2023-02-25T11:20:01.706Z,98383.44
2023-02-25T11:22:41.400Z,98390.34
2023-02-25T11:25:20.145Z,98385.75
2023-02-25T11:27:55.069Z,98393.94
2023-02-25T11:30:31.872Z,98393.25
2023-02-25T11:33:03.002Z,98416.22
2023-02-25T11:35:37.531Z,98413.38
2023-02-25T11:38:26.511Z,98424.88
2023-02-25T11:40:53.409Z,98425.25
2023-02-25T11:43:25.737Z,98420.19
2023-02-25T11:45:56.089Z,98424.78
2023-02-25T11:48:27.875Z,98427.84
2023-02-25T11:51:13.183Z,98432.25
2023-02-25T11:54:21.600Z,98411.59
2023-02-25T11:57:12.442Z,98423.31
2023-02-25T12:00:06.402Z,98424.03
2023-02-25T12:03:10.314Z,98421.72
2023-02-25T12:05:50.486Z,98432.84
2023-02-25T12:08:40.348Z,98435.91
2023-02-25T12:11:18.692Z,98429.97
2023-02-25T12:14:23.571Z,98441.88
2023-02-25T12:17:12.372Z,98439.53
2023-02-25T12:19:41.975Z,98437.56
2023-02-25T12:22:34.318Z,98431.13
2023-02-25T12:25:06.634Z,98435.75
2023-02-25T12:27:42.425Z,98424.88
2023-02-25T12:30:31.635Z,98433.19
2023-02-25T12:33:17.004Z,98435.38
2023-02-25T12:36:13.466Z,98426.66
2023-02-25T12:38:40.144Z,98439.22
2023-02-25T12:41:25.773Z,98431.97
2023-02-25T12:44:04.038Z,98427.19
2023-02-25T12:46:58.993Z,98428.34
2023-02-25T12:49:37.775Z,98423.66
2023-02-25T12:52:10.959Z,98424.88
2023-02-25T12:55:13.416Z,98425.25
2023-02-25T12:57:58.201Z,98415.53
2023-02-25T13:00:35.251Z,98420.66
2023-02-25T13:03:15.659Z,98431.53
2023-02-25T13:05:55.741Z,98422.63
2023-02-25T13:08:56.374Z,98417.09
2023-02-25T13:12:11.102Z,98420.16
2023-02-25T13:14:56.585Z,98419.44
2023-02-25T13:17:26.444Z,98425.34
2023-02-25T13:20:21.090Z,98417.91
2023-02-25T13:23:08.507Z,98408.81
2023-02-25T13:25:58.612Z,98426.25
2023-02-25T13:28:52.863Z,98430.09
2023-02-25T13:31:44.474Z,98430.66
2023-02-25T13:34:26.869Z,98430.66
2023-02-25T13:36:53.667Z,98431.88
2023-02-25T13:39:42.637Z,98436.50
2023-02-25T13:42:24.575Z,98436.72
2023-02-25T13:45:29.043Z,98439.19
2023-02-25T13:48:17.119Z,98440.81
2023-02-25T13:50:56.815Z,98437.03
2023-02-25T13:54:02.198Z,98438.94
2023-02-25T13:56:44.802Z,98436.31
2023-02-25T13:59:29.266Z,98441.88
2023-02-25T14:02:53.113Z,98442.69
2023-02-25T14:05:45.572Z,98464.09
2023-02-25T14:08:23.971Z,98463.53
2023-02-25T14:11:01.258Z,98466.91
2023-02-25T14:13:43.984Z,98464.47
2023-02-25T14:16:30.045Z,98463.34
2023-02-25T14:19:32.260Z,98466.16
2023-02-25T14:22:04.591Z,98462.47
2023-02-25T14:24:41.813Z,98473.16
2023-02-25T14:27:25.081Z,98476.97
2023-02-25T14:29:54.555Z,98481.13
2023-02-25T14:32:49.065Z,98473.69
2023-02-25T14:35:21.523Z,98477.53
2023-02-25T14:38:11.971Z,98481.59
2023-02-25T14:41:02.057Z,98474.38
2023-02-25T14:43:33.299Z,98484.38
2023-02-25T14:46:47.240Z,98476.19
2023-02-25T14:49:30.062Z,98485.19
2023-02-25T14:52:12.372Z,98492.03
2023-02-25T14:54:42.235Z,98504.28
2023-02-25T14:57:16.654Z,98497.63
2023-02-25T15:00:22.986Z,98494.97
2023-02-25T15:03:22.609Z,98498.66
2023-02-25T15:06:07.527Z,98499.91
2023-02-25T15:09:07.823Z,98504.53
2023-02-25T15:11:55.100Z,98501.34
2023-02-25T15:15:08.478Z,98508.56
2023-02-25T15:18:11.127Z,98511.94
2023-02-25T15:20:40.111Z,98525.66
2023-02-25T15:23:20.884Z,98565.91
2023-02-25T15:26:12.430Z,98591.13
2023-02-25T15:28:41.423Z,98564.09
2023-02-25T15:32:22.203Z,98584.25
2023-02-25T15:35:02.679Z,98574.59
2023-02-25T15:37:36.164Z,98582.53
2023-02-25T15:40:16.059Z,98583.06
2023-02-25T15:42:54.411Z,98596.50
2023-02-25T15:45:27.543Z,98595.63
2023-02-25T15:48:06.591Z,98580.22
2023-02-25T15:50:53.356Z,98574.53
2023-02-25T15:53:26.700Z,98576.03
2023-02-25T15:56:13.292Z,98564.91
2023-02-25T15:58:50.443Z,98565.44
2023-02-25T16:01:26.582Z,98577.72
2023-02-25T16:03:53.821Z,98597.06
2023-02-25T16:06:32.287Z,98604.56
2023-02-25T16:09:09.859Z,98603.19
2023-02-25T16:11:46.482Z,98598.69
2023-02-25T16:14:25.363Z,98590.81
2023-02-25T16:17:12.437Z,98598.34
2023-02-25T16:19:40.210Z,98610.63
2023-02-25T16:22:26.046Z,98624.13
2023-02-25T16:24:55.558Z,98611.66
2023-02-25T16:28:00.137Z,98619.56
2023-02-25T16:30:45.063Z,98624.47
2023-02-25T16:33:40.043Z,98633.19
2023-02-25T16:36:18.989Z,98620.91
2023-02-25T16:39:03.349Z,98612.44
2023-02-25T16:41:38.230Z,98597.34
2023-02-25T16:44:09.696Z,98597.53
2023-02-25T16:46:41.481Z,98608.63
2023-02-25T16:49:38.127Z,98604.06
2023-02-25T16:52:07.407Z,98622.06
2023-02-25T16:54:37.982Z,98630.13
2023-02-25T16:57:07.348Z,98635.66
2023-02-25T16:59:37.014Z,98634.03
2023-02-25T17:02:15.972Z,98633.81
2023-02-25T17:04:49.288Z,98633.47
2023-02-25T17:07:22.318Z,98626.09
2023-02-25T17:09:50.278Z,98618.84
2023-02-25T17:12:45.749Z,98617.66
2023-02-25T17:15:17.189Z,98630.66
2023-02-25T17:17:47.109Z,98615.66
2023-02-25T17:20:23.557Z,98602.19
2023-02-25T17:22:51.126Z,98604.94
2023-02-25T17:25:19.199Z,98596.63
2023-02-25T17:27:49.807Z,98589.47
2023-02-25T17:30:37.544Z,98585.41
2023-02-25T17:33:05.509Z,98600.63
2023-02-25T17:35:32.934Z,98600.38
2023-02-25T17:38:00.009Z,98611.06
2023-02-25T17:40:28.673Z,98622.44
2023-02-25T17:43:25.743Z,98627.91
2023-02-25T17:45:57.879Z,98626.72
2023-02-25T17:48:31.423Z,98638.00
2023-02-25T17:51:10.234Z,98645.69
2023-02-25T17:53:36.954Z,98654.00
2023-02-25T17:56:24.761Z,98656.44
2023-02-25T17:58:53.392Z,98643.88
2023-02-25T18:01:27.274Z,98629.06
2023-02-25T18:03:55.065Z,98612.88
2023-02-25T18:06:39.177Z,98609.63
2023-02-25T18:09:07.205Z,98609.25
2023-02-25T18:11:41.463Z,98604.31
2023-02-25T18:14:40.686Z,98605.72
2023-02-25T18:17:25.380Z,98614.78
2023-02-25T18:19:58.792Z,98619.19
2023-02-25T18:22:30.460Z,98606.00
2023-02-25T18:25:01.130Z,98617.94
2023-02-25T18:27:32.494Z,98628.81
2023-02-25T18:30:20.553Z,98638.28
2023-02-25T18:32:48.046Z,98638.97
2023-02-25T18:35:15.419Z,98650.44
2023-02-25T18:37:43.738Z,98651.44
2023-02-25T18:40:29.836Z,98651.44
2023-02-25T18:42:58.007Z,98663.91
2023-02-25T18:45:26.989Z,98669.03
2023-02-25T18:47:56.843Z,98664.28
2023-02-25T18:50:25.631Z,98662.25
2023-02-25T18:52:52.413Z,98668.78
2023-02-25T18:55:25.497Z,98679.19
2023-02-25T18:57:52.637Z,98675.41
2023-02-25T19:00:23.590Z,98681.50
2023-02-25T19:02:52.064Z,98690.63
2023-02-25T19:05:20.742Z,98684.75
2023-02-25T19:07:47.746Z,98684.19
2023-02-25T19:10:25.415Z,98691.69
2023-02-25T19:13:00.218Z,98689.72
2023-02-25T19:15:27.089Z,98693.31
2023-02-25T19:17:53.919Z,98687.56
2023-02-25T19:20:21.185Z,98700.97
2023-02-25T19:22:50.816Z,98702.91
2023-02-25T19:25:26.103Z,98697.78
2023-02-25T19:27:53.939Z,98702.19
2023-02-25T19:30:29.344Z,98704.13
2023-02-25T19:32:59.608Z,98708.06
2023-02-25T19:35:27.187Z,98708.06
2023-02-25T19:37:54.169Z,98716.38
2023-02-25T19:40:21.059Z,98719.53
2023-02-25T19:42:48.979Z,98736.34
2023-02-25T19:45:21.192Z,98754.31
2023-02-25T19:47:48.771Z,98753.34
2023-02-25T19:50:18.255Z,98753.94
2023-02-25T19:52:45.184Z,98768.38
2023-02-25T19:55:13.628Z,98770.53
2023-02-25T19:57:41.618Z,98760.25
2023-02-25T20:00:29.817Z,98766.97
2023-02-25T20:02:56.597Z,98738.97
2023-02-25T20:05:24.052Z,98729.13
2023-02-25T20:07:52.299Z,98741.44
2023-02-25T20:10:19.657Z,98772.25
2023-02-25T20:12:47.254Z,98783.50
2023-02-25T20:15:16.042Z,98779.34
2023-02-25T20:17:44.395Z,98780.94
2023-02-25T20:20:15.152Z,98800.50
2023-02-25T20:22:42.882Z,98808.81
2023-02-25T20:25:10.518Z,98825.63
2023-02-25T20:27:39.664Z,98823.44
2023-02-25T20:30:07.530Z,98815.41
2023-02-25T20:32:35.030Z,98815.59
2023-02-25T20:35:03.508Z,98817.00
2023-02-25T20:37:34.862Z,98821.25
2023-02-25T20:40:02.173Z,98827.59
2023-02-25T20:42:31.298Z,98809.78
2023-02-25T20:44:59.563Z,98794.00
2023-02-25T20:47:29.521Z,98796.75
2023-02-25T20:49:58.273Z,98790.03
2023-02-25T20:52:26.947Z,98790.03
2023-02-25T20:54:54.285Z,98803.28
2023-02-25T20:57:23.229Z,98819.69
2023-02-25T20:59:50.224Z,98799.94
2023-02-25T21:02:17.698Z,98815.34
2023-02-25T21:04:45.448Z,98837.28
2023-02-25T21:07:12.469Z,98864.56
2023-02-25T21:09:39.474Z,98890.88
2023-02-25T21:12:07.099Z,98893.25
2023-02-25T21:14:34.269Z,98882.19
2023-02-25T21:17:01.442Z,98852.53
2023-02-25T21:19:28.520Z,98839.03
2023-02-25T21:21:55.822Z,98815.22
2023-02-25T21:24:22.795Z,98789.56
2023-02-25T21:26:49.567Z,98773.22
2023-02-25T21:29:16.385Z,98789.56
2023-02-25T21:31:43.545Z,98837.13
2023-02-25T21:34:13.035Z,98838.34
2023-02-25T21:36:41.274Z,98819.25
2023-02-25T21:39:09.424Z,98845.09
2023-02-25T21:41:38.130Z,98882.97
2023-02-25T21:44:05.176Z,98894.22
2023-02-25T21:46:32.403Z,98884.56
2023-02-25T21:48:59.645Z,98870.25
2023-02-25T21:51:27.765Z,98885.41
2023-02-25T21:54:00.269Z,98892.59
2023-02-25T21:56:27.917Z,98904.97
2023-02-25T21:59:03.301Z,98874.53
2023-02-25T22:01:34.082Z,98867.63
2023-02-25T22:04:01.118Z,98843.03
2023-02-25T22:06:28.437Z,98796.00
2023-02-25T22:08:56.976Z,98766.91
2023-02-25T22:11:27.031Z,98778.44
2023-02-25T22:13:55.479Z,98813.31
2023-02-25T22:16:27.786Z,98829.66
2023-02-25T22:18:54.932Z,98838.28
2023-02-25T22:21:32.993Z,98861.91
2023-02-25T22:24:01.411Z,98868.09
2023-02-25T22:26:31.723Z,98854.38
2023-02-25T22:29:01.820Z,98853.94
2023-02-25T22:31:29.105Z,98866.59
2023-02-25T22:33:57.396Z,98857.13
2023-02-25T22:36:24.673Z,98842.69
2023-02-25T22:38:51.888Z,98835.09
2023-02-25T22:41:29.249Z,98842.69
2023-02-25T22:43:59.031Z,98867.47
2023-02-25T22:46:31.620Z,98873.41
2023-02-25T22:48:58.644Z,98892.75
2023-02-25T22:51:28.552Z,98907.44
2023-02-25T22:53:56.425Z,98902.75
2023-02-25T22:56:24.767Z,98898.41
2023-02-25T22:58:52.224Z,98877.91
2023-02-25T23:01:22.369Z,98880.91
2023-02-25T23:03:50.536Z,98882.22
2023-02-25T23:06:24.930Z,98878.59
2023-02-25T23:08:56.046Z,98887.63
2023-02-25T23:11:46.851Z,98893.91
2023-02-25T23:14:14.747Z,98916.09
2023-02-25T23:16:44.768Z,98927.06
2023-02-25T23:19:17.226Z,98921.94
2023-02-25T23:21:46.926Z,98915.22
2023-02-25T23:24:24.855Z,98885.41
2023-02-25T23:26:53.719Z,98870.66
2023-02-25T23:29:21.256Z,98865.59
2023-02-25T23:31:49.069Z,98852.75
2023-02-25T23:34:25.278Z,98851.66
2023-02-25T23:36:56.517Z,98857.41
2023-02-25T23:39:24.120Z,98861.25
2023-02-25T23:41:51.288Z,98867.63
2023-02-25T23:44:18.058Z,98864.09
2023-02-25T23:46:45.353Z,98836.50
2023-02-25T23:49:13.623Z,98821.53
2023-02-25T23:51:43.915Z,98828.25
2023-02-25T23:54:14.955Z,98857.09
2023-02-25T23:56:41.749Z,98881.75
2023-02-25T23:59:10.534Z,98907.72
